Time;durP1;ratioP1;P1;durP2;ratioP2;P2;SDS_P1;SDS_P2;PMS_P1;PMS_P2;Temp;Humidity;BMP_temperature;BMP_pressure;BME280_temperature;BME280_humidity;BME280_pressure;Samples;Min_cycle;Max_cycle;Signal;HPM_P1;HPM_P2
2023/06/15 00:00:23;;;;;;;5.28;3.65;;;;;;;16.67;68.76;97230.13;5030972;28;20421;-74
2023/06/15 00:02:49;;;;;;;4.78;3.47;;;;;;;16.62;69.26;97236.34;5031068;28;20482;-74
2023/06/15 00:05:16;;;;;;;4.70;3.40;;;;;;;16.60;69.78;97240.38;5030638;28;20407;-73
2023/06/15 00:07:44;;;;;;;5.30;3.42;;;;;;;16.60;70.34;97241.22;5030944;28;20417;-74
2023/06/15 00:10:11;;;;;;;4.73;3.73;;;;;;;16.64;69.95;97236.06;5030944;28;20508;-74
2023/06/15 00:12:37;;;;;;;5.35;3.78;;;;;;;16.62;70.23;97243.56;5030819;28;20403;-74
2023/06/15 00:15:04;;;;;;;5.75;3.90;;;;;;;16.68;69.00;97241.63;5030537;28;20399;-74
2023/06/15 00:17:30;;;;;;;4.75;3.72;;;;;;;16.62;69.69;97246.22;5030880;28;20742;-74
2023/06/15 00:20:00;;;;;;;6.57;4.10;;;;;;;16.60;70.06;97243.06;5030694;28;20438;-74
2023/06/15 00:22:28;;;;;;;5.67;3.90;;;;;;;16.61;69.56;97245.44;5030736;28;20448;-74
2023/06/15 00:24:56;;;;;;;5.65;3.60;;;;;;;16.58;70.59;97248.69;5030476;28;20402;-74
2023/06/15 00:27:22;;;;;;;5.80;3.92;;;;;;;16.61;69.86;97250.03;5030670;28;20918;-74
2023/06/15 00:29:48;;;;;;;5.10;3.63;;;;;;;16.60;69.69;97243.88;5030628;28;20461;-74
2023/06/15 00:32:14;;;;;;;5.15;3.92;;;;;;;16.61;70.48;97256.13;5030626;28;20411;-74
2023/06/15 00:34:40;;;;;;;4.65;3.42;;;;;;;16.67;70.27;97245.38;5030263;28;20407;-74
2023/06/15 00:37:07;;;;;;;5.93;3.58;;;;;;;16.68;70.42;97246.97;5030514;28;20427;-74
2023/06/15 00:39:33;;;;;;;4.57;3.30;;;;;;;16.68;71.08;97250.44;5030619;28;20447;-74
2023/06/15 00:42:01;;;;;;;4.63;3.10;;;;;;;16.68;71.57;97247.75;5030077;28;20403;-74
2023/06/15 00:44:27;;;;;;;4.43;3.30;;;;;;;16.69;72.15;97243.97;5030149;28;20892;-74
2023/06/15 00:46:53;;;;;;;6.25;3.55;;;;;;;16.70;72.28;97255.47;5030429;28;20854;-74
2023/06/15 00:49:21;;;;;;;6.30;3.92;;;;;;;16.68;72.62;97255.78;5030450;28;20399;-74
2023/06/15 00:51:47;;;;;;;5.53;3.45;;;;;;;16.72;72.49;97261.31;5030495;28;20415;-74
2023/06/15 00:54:17;;;;;;;4.30;3.20;;;;;;;16.71;72.13;97255.16;5030027;28;20442;-74
2023/06/15 00:56:43;;;;;;;5.63;3.70;;;;;;;16.73;70.46;97250.34;5030319;28;20474;-74
2023/06/15 00:59:10;;;;;;;5.40;3.80;;;;;;;16.67;71.47;97256.84;5030380;28;20738;-74
2023/06/15 01:01:37;;;;;;;5.72;3.80;;;;;;;16.66;71.94;97259.81;5030422;28;20969;-74
2023/06/15 01:04:03;;;;;;;4.90;3.40;;;;;;;16.66;72.44;97262.50;5029922;28;20406;-73
2023/06/15 01:06:31;;;;;;;4.38;3.40;;;;;;;16.65;72.63;97261.69;5030312;28;20425;-73
2023/06/15 01:09:01;;;;;;;5.30;3.20;;;;;;;16.68;73.04;97265.69;5030315;28;20399;-74
2023/06/15 01:11:28;;;;;;;6.27;3.50;;;;;;;16.72;72.96;97256.75;5030309;28;20439;-74
2023/06/15 01:13:57;;;;;;;5.05;3.80;;;;;;;16.72;73.01;97253.28;5030074;28;20418;-73
2023/06/15 01:16:28;;;;;;;3.80;2.97;;;;;;;16.70;73.40;97252.78;5030343;28;20406;-74
2023/06/15 01:18:59;;;;;;;5.00;3.42;;;;;;;16.69;73.24;97245.88;5030141;28;20414;-73
2023/06/15 01:21:28;;;;;;;4.75;3.55;;;;;;;16.64;73.00;97252.09;5030284;28;20406;-73
2023/06/15 01:24:08;;;;;;;4.90;3.63;;;;;;;16.62;72.69;97252.38;5030209;28;20880;-74
2023/06/15 01:26:38;;;;;;;4.95;3.95;;;;;;;16.58;72.58;97259.38;5030166;28;20399;-73
2023/06/15 01:29:06;;;;;;;6.68;3.80;;;;;;;16.57;72.45;97252.44;5030074;28;20395;-73
2023/06/15 01:31:33;;;;;;;6.43;3.50;;;;;;;16.50;73.08;97254.69;5030265;28;20406;-74
2023/06/15 01:34:00;;;;;;;5.63;3.43;;;;;;;16.49;72.89;97260.31;5029757;28;20403;-73
2023/06/15 01:36:26;;;;;;;5.40;3.40;;;;;;;16.42;73.56;97267.91;5029988;28;20462;-74
2023/06/15 01:38:56;;;;;;;4.70;3.58;;;;;;;16.33;74.35;97261.63;5029921;28;20841;-73
2023/06/15 01:41:24;;;;;;;4.18;3.25;;;;;;;16.27;75.30;97255.59;5030195;28;20434;-73
2023/06/15 01:43:52;;;;;;;4.20;3.20;;;;;;;16.24;75.24;97267.63;5029976;28;20487;-73
2023/06/15 01:46:20;;;;;;;5.07;3.90;;;;;;;16.25;74.21;97260.41;5029768;28;20407;-73
2023/06/15 01:48:47;;;;;;;4.90;3.80;;;;;;;16.17;74.42;97261.88;5029778;28;20891;-73
2023/06/15 01:51:14;;;;;;;5.43;3.58;;;;;;;16.20;73.35;97260.50;5029922;28;20435;-73
2023/06/15 01:53:40;;;;;;;5.28;3.72;;;;;;;16.15;72.99;97260.59;5029989;28;20411;-73
2023/06/15 01:56:06;;;;;;;6.70;3.80;;;;;;;16.10;72.30;97263.31;5033200;28;20543;-73
2023/06/15 01:58:32;;;;;;;5.78;4.05;;;;;;;16.05;71.68;97250.84;5033354;28;20422;-73
2023/06/15 02:01:00;;;;;;;6.65;3.65;;;;;;;15.96;72.55;97254.44;5033262;28;20456;-73
2023/06/15 02:03:26;;;;;;;5.28;3.90;;;;;;;15.92;73.19;97259.56;5033205;28;20410;-73
2023/06/15 02:05:52;;;;;;;5.35;3.83;;;;;;;15.89;73.41;97262.81;5032892;28;20883;-73
2023/06/15 02:08:18;;;;;;;6.22;4.05;;;;;;;15.86;73.46;97258.81;5033165;28;20399;-73
2023/06/15 02:10:45;;;;;;;4.70;3.78;;;;;;;15.84;73.88;97252.22;5033214;28;20819;-73
2023/06/15 02:13:12;;;;;;;7.15;4.22;;;;;;;15.82;74.00;97263.16;5032026;28;20443;-73
2023/06/15 02:15:38;;;;;;;12.68;4.45;;;;;;;15.81;74.46;97258.09;5032718;28;20457;-73
2023/06/15 02:18:12;;;;;;;4.97;3.73;;;;;;;15.77;74.92;97260.56;5032811;28;20817;-73
2023/06/15 02:20:39;;;;;;;4.97;3.78;;;;;;;15.73;74.80;97256.06;5033043;28;20807;-73
2023/06/15 02:23:05;;;;;;;5.88;3.85;;;;;;;15.73;73.68;97264.88;5032889;28;20930;-73
2023/06/15 02:25:31;;;;;;;5.22;3.97;;;;;;;15.61;75.11;97264.50;5032785;28;20457;-73
2023/06/15 02:27:57;;;;;;;7.20;4.00;;;;;;;15.60;74.61;97262.91;5032832;28;20402;-73
2023/06/15 02:30:25;;;;;;;5.75;3.97;;;;;;;15.53;75.47;97262.47;5032858;28;20407;-72
2023/06/15 02:32:53;;;;;;;5.43;3.93;;;;;;;15.48;76.38;97262.50;5032975;28;20474;-72
2023/06/15 02:35:21;;;;;;;5.90;3.72;;;;;;;15.44;77.07;97256.94;5032448;28;20403;-73
2023/06/15 02:37:47;;;;;;;5.05;3.67;;;;;;;15.42;77.35;97260.97;5031239;28;20415;-74
2023/06/15 02:40:13;;;;;;;5.43;3.55;;;;;;;15.40;77.34;97260.47;5032546;28;20804;-74
2023/06/15 02:42:40;;;;;;;5.85;3.90;;;;;;;15.37;77.52;97261.81;5032580;28;20399;-74
2023/06/15 02:45:07;;;;;;;7.65;3.70;;;;;;;15.33;77.16;97260.81;5030998;28;20403;-74
2023/06/15 02:47:35;;;;;;;6.05;3.88;;;;;;;15.30;77.64;97260.59;5032291;28;20760;-74
2023/06/15 02:50:01;;;;;;;4.35;3.40;;;;;;;15.27;78.74;97267.25;5032396;28;20402;-74
2023/06/15 02:52:31;;;;;;;4.13;3.20;;;;;;;15.27;79.41;97267.25;5032325;28;20942;-74
2023/06/15 02:54:58;;;;;;;7.05;4.32;;;;;;;15.35;77.61;97253.31;5032217;28;20423;-74
2023/06/15 02:57:24;;;;;;;7.18;4.18;;;;;;;15.31;77.22;97265.63;5030998;28;20522;-74
2023/06/15 02:59:50;;;;;;;6.22;4.15;;;;;;;15.24;77.12;97261.72;5032240;28;20406;-74
2023/06/15 03:02:20;;;;;;;6.28;3.88;;;;;;;15.14;77.88;97267.94;5032250;28;20399;-74
2023/06/15 03:04:47;;;;;;;5.13;3.78;;;;;;;15.07;78.71;97267.50;5031615;28;20802;-74
2023/06/15 03:07:16;;;;;;;5.07;3.80;;;;;;;15.02;79.57;97265.69;5032094;28;20403;-74
2023/06/15 03:09:45;;;;;;;5.15;3.90;;;;;;;14.99;79.79;97271.56;5032105;28;20409;-74
2023/06/15 03:12:11;;;;;;;5.57;4.10;;;;;;;14.94;80.86;97274.28;5032038;28;20414;-74
2023/06/15 03:14:37;;;;;;;4.55;3.65;;;;;;;14.93;82.01;97271.91;5031654;28;20438;-74
2023/06/15 03:17:04;;;;;;;5.82;4.20;;;;;;;14.94;82.56;97274.28;5031842;28;20400;-74
2023/06/15 03:19:31;;;;;;;7.18;3.97;;;;;;;14.96;81.14;97284.69;5031801;28;20434;-74
2023/06/15 03:21:57;;;;;;;5.85;4.20;;;;;;;14.99;79.96;97276.09;5031852;28;20407;-74
2023/06/15 03:24:25;;;;;;;10.00;4.20;;;;;;;14.89;81.02;97278.84;5031632;28;20872;-74
2023/06/15 03:26:57;;;;;;;5.47;4.07;;;;;;;14.86;81.53;97284.75;5031670;28;20403;-74
2023/06/15 03:29:26;;;;;;;5.78;4.18;;;;;;;14.80;81.12;97286.69;5031849;28;20827;-74
2023/06/15 03:31:53;;;;;;;5.20;3.85;;;;;;;14.73;82.95;97284.31;5031715;28;20406;-74
2023/06/15 03:34:19;;;;;;;5.10;3.80;;;;;;;14.71;84.30;97281.16;5031306;28;20403;-74
2023/06/15 03:36:45;;;;;;;6.93;4.35;;;;;;;14.73;84.82;97285.41;5031570;28;20403;-74
2023/06/15 03:39:12;;;;;;;5.85;3.75;;;;;;;14.71;84.80;97286.50;5031311;28;20419;-74
2023/06/15 03:41:38;;;;;;;7.82;4.10;;;;;;;14.72;85.86;97289.94;5031448;28;20827;-74
2023/06/15 03:44:06;;;;;;;5.45;4.22;;;;;;;14.73;84.78;97288.88;5031368;28;20489;-74
2023/06/15 03:46:32;;;;;;;6.30;4.25;;;;;;;14.70;84.89;97292.09;5031195;28;20461;-74
2023/06/15 03:48:58;;;;;;;4.95;3.85;;;;;;;14.67;86.12;97300.63;5031583;28;20542;-74
2023/06/15 03:51:24;;;;;;;5.38;4.10;;;;;;;14.67;85.99;97295.31;5044595;28;20412;-74
2023/06/15 03:53:50;;;;;;;6.17;4.50;;;;;;;14.65;86.55;97297.47;5042184;28;20484;-74
2023/06/15 03:56:16;;;;;;;7.78;4.25;;;;;;;14.64;86.70;97303.88;5040835;28;20402;-74
2023/06/15 03:58:42;;;;;;;6.25;4.15;;;;;;;14.61;87.36;97302.53;5045870;28;20481;-74
2023/06/15 04:01:12;;;;;;;5.30;3.90;;;;;;;14.63;88.65;97304.94;5031066;28;20827;-74
2023/06/15 04:03:39;;;;;;;6.45;3.85;;;;;;;14.64;89.77;97302.00;5030997;28;20494;-74
2023/06/15 04:06:06;;;;;;;5.15;3.90;;;;;;;14.68;90.67;97313.69;5030750;28;20807;-74
2023/06/15 04:08:32;;;;;;;5.43;3.90;;;;;;;14.73;91.60;97312.06;5030777;28;20482;-74
2023/06/15 04:10:59;;;;;;;5.20;3.90;;;;;;;14.79;92.25;97313.59;5031008;28;20399;-74
2023/06/15 04:13:25;;;;;;;4.15;3.53;;;;;;;14.85;92.53;97310.63;5030987;28;20477;-74
2023/06/15 04:15:55;;;;;;;5.00;4.23;;;;;;;14.91;93.24;97314.81;5030716;28;20479;-74
2023/06/15 04:18:23;;;;;;;4.65;3.67;;;;;;;14.99;93.71;97318.75;5030475;28;20415;-73
2023/06/15 04:20:49;;;;;;;4.67;3.97;;;;;;;15.06;93.40;97320.00;5031074;28;20481;-74
2023/06/15 04:23:16;;;;;;;4.53;3.72;;;;;;;15.16;93.58;97326.34;5030782;28;20445;-74
2023/06/15 04:25:42;;;;;;;5.57;4.28;;;;;;;15.23;93.66;97334.78;5030491;28;20403;-74
2023/06/15 04:28:10;;;;;;;5.10;3.90;;;;;;;15.31;93.73;97328.84;5030724;28;20485;-73
2023/06/15 04:30:40;;;;;;;5.03;3.93;;;;;;;15.39;93.21;97334.38;5030788;28;20498;-73
2023/06/15 04:33:07;;;;;;;6.90;4.60;;;;;;;15.47;92.19;97338.28;5029428;28;20403;-73
2023/06/15 04:35:34;;;;;;;6.20;3.70;;;;;;;15.54;91.57;97335.31;5031411;28;20399;-73
2023/06/15 04:38:04;;;;;;;5.85;3.78;;;;;;;15.63;91.97;97337.06;5032065;28;20927;-73
2023/06/15 04:40:31;;;;;;;5.53;3.88;;;;;;;15.74;92.27;97341.19;5031884;28;20801;-73
2023/06/15 04:42:58;;;;;;;4.90;3.40;;;;;;;15.86;92.22;97338.13;5031917;28;20919;-73
2023/06/15 04:45:24;;;;;;;5.07;3.65;;;;;;;15.98;91.02;97341.19;5029826;28;20465;-73
2023/06/15 04:47:51;;;;;;;5.63;3.72;;;;;;;16.10;90.63;97338.88;5031735;28;20453;-74
2023/06/15 04:50:17;;;;;;;4.30;3.20;;;;;;;16.21;90.48;97342.22;5033546;28;20403;-73
2023/06/15 04:52:45;;;;;;;4.03;3.63;;;;;;;16.32;90.46;97340.19;5033504;28;20435;-72
2023/06/15 04:55:11;;;;;;;3.97;3.40;;;;;;;16.44;90.34;97344.03;5031348;28;20403;-73
2023/06/15 04:57:38;;;;;;;4.67;3.40;;;;;;;16.56;90.30;97347.03;5037137;28;20933;-73
2023/06/15 05:00:07;;;;;;;3.92;2.92;;;;;;;16.70;90.21;97352.47;5050644;28;20886;-73
2023/06/15 05:02:33;;;;;;;4.35;3.53;;;;;;;16.85;90.39;97357.59;5051273;28;20405;-73
2023/06/15 05:05:00;;;;;;;5.32;3.60;;;;;;;16.98;89.60;97353.41;5050715;28;20416;-72
2023/06/15 05:07:26;;;;;;;4.25;3.45;;;;;;;17.12;88.72;97359.56;5050690;28;20484;-72
2023/06/15 05:09:57;;;;;;;3.92;3.22;;;;;;;17.22;88.16;97351.34;5050778;28;20949;-73
2023/06/15 05:12:23;;;;;;;4.75;3.42;;;;;;;17.33;87.48;97362.69;5050754;28;20894;-73
2023/06/15 05:14:49;;;;;;;4.97;3.50;;;;;;;17.44;87.12;97353.41;5050285;28;20763;-73
2023/06/15 05:17:15;;;;;;;9.43;4.07;;;;;;;17.51;85.65;97353.00;5050568;28;20883;-73
2023/06/15 05:19:41;;;;;;;5.03;3.60;;;;;;;17.59;85.16;97352.31;5050804;28;20429;-73
2023/06/15 05:22:08;;;;;;;3.67;3.23;;;;;;;17.66;85.06;97360.78;5050575;28;20941;-73
2023/06/15 05:24:34;;;;;;;4.10;3.13;;;;;;;17.71;85.10;97355.31;5050328;28;20440;-73
2023/06/15 05:27:02;;;;;;;4.60;3.37;;;;;;;17.75;84.73;97356.28;5050534;28;20404;-73
2023/06/15 05:29:28;;;;;;;3.63;2.70;;;;;;;17.79;84.54;97357.31;5053247;28;20904;-73
2023/06/15 05:31:55;;;;;;;3.42;2.78;;;;;;;17.85;84.66;97363.34;5053752;28;20423;-73
2023/06/15 05:34:21;;;;;;;4.25;3.10;;;;;;;17.88;84.80;97362.75;5053642;28;20886;-73
2023/06/15 05:36:48;;;;;;;4.63;3.22;;;;;;;17.90;84.46;97361.34;5053716;28;20431;-73
2023/06/15 05:39:14;;;;;;;4.40;3.10;;;;;;;17.90;83.80;97364.03;5053908;28;20421;-73
2023/06/15 05:41:40;;;;;;;3.72;2.85;;;;;;;17.92;83.72;97375.25;5053880;28;20433;-73
2023/06/15 05:44:08;;;;;;;4.35;3.25;;;;;;;17.92;83.29;97364.53;5053403;28;20401;-73
2023/06/15 05:46:34;;;;;;;4.88;3.20;;;;;;;17.93;83.41;97359.97;5053826;28;20447;-73
2023/06/15 05:49:00;;;;;;;3.83;3.17;;;;;;;17.93;82.85;97365.34;5053448;28;20410;-73
2023/06/15 05:51:26;;;;;;;6.20;3.70;;;;;;;17.91;82.25;97370.97;5053492;28;20462;-73
2023/06/15 05:53:55;;;;;;;5.43;3.70;;;;;;;17.89;82.20;97370.50;5053237;28;20437;-73
2023/06/15 05:56:21;;;;;;;3.85;3.20;;;;;;;17.89;82.31;97375.06;5053077;28;20756;-73
2023/06/15 05:58:47;;;;;;;4.70;3.80;;;;;;;17.88;82.55;97376.16;5053195;28;20585;-73
2023/06/15 06:01:15;;;;;;;4.93;3.55;;;;;;;17.89;82.50;97377.75;5053695;28;20413;-73
2023/06/15 06:03:41;;;;;;;4.45;3.40;;;;;;;17.89;82.71;97380.41;5052378;28;20814;-73
2023/06/15 06:06:08;;;;;;;4.72;3.40;;;;;;;17.90;82.69;97380.09;5046241;28;20754;-72
2023/06/15 06:08:34;;;;;;;4.63;2.92;;;;;;;17.90;83.03;97377.41;5044877;28;20403;-72
2023/06/15 06:11:03;;;;;;;4.22;3.15;;;;;;;17.92;82.99;97383.28;5041589;28;20479;-71
2023/06/15 06:13:30;;;;;;;6.40;3.60;;;;;;;17.94;82.97;97391.03;5045940;28;20403;-73
2023/06/15 06:15:56;;;;;;;4.95;3.58;;;;;;;17.93;81.87;97387.56;5048174;28;20902;-73
2023/06/15 06:18:24;;;;;;;4.82;3.67;;;;;;;17.95;81.32;97392.63;5049177;28;20409;-74
2023/06/15 06:20:50;;;;;;;5.28;3.53;;;;;;;17.95;80.33;97398.75;5044886;28;20413;-73
2023/06/15 06:23:16;;;;;;;7.63;4.20;;;;;;;17.95;79.94;97387.25;5046718;28;20821;-74
2023/06/15 06:25:42;;;;;;;4.60;3.63;;;;;;;18.00;80.29;97395.19;5047448;28;20401;-74
2023/06/15 06:28:08;;;;;;;4.63;3.40;;;;;;;18.05;80.19;97395.06;5044852;28;20872;-74
2023/06/15 06:30:35;;;;;;;6.30;3.53;;;;;;;18.09;79.92;97398.75;5043510;28;20413;-73
2023/06/15 06:33:03;;;;;;;5.85;3.63;;;;;;;18.14;79.74;97396.75;5040512;28;20898;-74
2023/06/15 06:35:30;;;;;;;5.63;3.53;;;;;;;18.17;77.33;97396.19;5041267;28;20404;-74
2023/06/15 06:37:56;;;;;;;4.25;3.20;;;;;;;18.19;77.80;97390.53;5042247;28;20421;-74
2023/06/15 06:40:25;;;;;;;7.60;4.00;;;;;;;18.23;77.53;97396.84;5040099;28;20469;-73
2023/06/15 06:42:51;;;;;;;4.72;3.58;;;;;;;18.27;77.43;97397.06;5040495;28;20408;-73
2023/06/15 06:45:18;;;;;;;5.38;3.75;;;;;;;18.28;75.96;97395.94;5044646;28;20404;-73
2023/06/15 06:47:44;;;;;;;5.13;3.50;;;;;;;18.31;76.30;97393.47;5040230;28;20410;-74
2023/06/15 06:50:10;;;;;;;8.52;4.00;;;;;;;18.34;76.11;97398.25;5033037;28;20460;-73
2023/06/15 06:52:38;;;;;;;5.57;4.00;;;;;;;18.37;76.62;97394.94;5032976;28;20402;-73
2023/06/15 06:55:05;;;;;;;4.30;3.15;;;;;;;18.40;76.69;97406.97;5032519;28;20399;-72
2023/06/15 06:57:32;;;;;;;6.43;3.72;;;;;;;18.42;76.04;97405.53;5039384;28;20421;-72
2023/06/15 06:59:58;;;;;;;5.38;3.22;;;;;;;18.44;76.35;97399.91;5046895;28;20952;-73
2023/06/15 07:02:24;;;;;;;4.70;3.22;;;;;;;18.46;76.20;97403.06;5042176;28;20420;-72
2023/06/15 07:04:50;;;;;;;5.38;3.47;;;;;;;18.49;76.33;97405.16;5041014;28;20481;-72
2023/06/15 07:07:16;;;;;;;3.83;3.10;;;;;;;18.52;76.81;97409.91;5041553;28;20902;-73
2023/06/15 07:09:44;;;;;;;5.27;3.33;;;;;;;18.55;76.79;97412.78;5040581;28;20567;-72
2023/06/15 07:12:10;;;;;;;4.72;3.45;;;;;;;18.55;76.34;97404.75;5041306;28;20848;-72
2023/06/15 07:14:36;;;;;;;7.78;3.97;;;;;;;18.58;76.19;97414.09;5037103;28;20476;-72
2023/06/15 07:17:03;;;;;;;6.95;3.65;;;;;;;18.61;75.30;97418.06;5033368;28;20422;-72
2023/06/15 07:19:29;;;;;;;6.90;3.90;;;;;;;18.66;74.60;97409.91;5037428;28;20414;-72
2023/06/15 07:21:56;;;;;;;5.97;3.72;;;;;;;18.70;74.46;97414.38;5040663;28;20411;-74
2023/06/15 07:24:22;;;;;;;6.18;3.80;;;;;;;18.72;74.04;97411.41;5032738;28;20919;-73
2023/06/15 07:26:51;;;;;;;5.22;3.67;;;;;;;18.76;73.94;97407.78;5032138;28;20490;-72
2023/06/15 07:29:17;;;;;;;8.00;3.87;;;;;;;18.79;73.33;97407.19;5032085;28;20786;-73
2023/06/15 07:31:45;;;;;;;5.38;3.50;;;;;;;18.86;73.17;97399.53;5031670;28;20403;-72
2023/06/15 07:34:11;;;;;;;7.13;4.38;;;;;;;18.86;71.23;97410.25;5040279;28;20405;-72
2023/06/15 07:36:38;;;;;;;6.47;4.00;;;;;;;18.89;72.36;97406.16;5038332;28;20450;-73
2023/06/15 07:39:04;;;;;;;13.45;4.65;;;;;;;18.94;73.06;97408.75;5031578;28;20419;-73
2023/06/15 07:41:30;;;;;;;17.85;6.75;;;;;;;18.98;73.34;97407.03;5031479;28;20493;-73
2023/06/15 07:43:58;;;;;;;11.65;4.88;;;;;;;19.02;73.78;97410.66;5034270;28;20398;-73
2023/06/15 07:46:24;;;;;;;9.60;4.63;;;;;;;19.07;73.79;97401.72;5032857;28;20417;-73
2023/06/15 07:48:50;;;;;;;6.57;4.00;;;;;;;19.12;74.02;97410.44;5049957;28;20413;-73
2023/06/15 07:51:16;;;;;;;6.00;4.00;;;;;;;19.16;73.57;97413.31;5050857;28;20436;-73
2023/06/15 07:53:43;;;;;;;6.40;3.65;;;;;;;19.19;73.73;97413.47;5051198;28;20907;-73
2023/06/15 07:56:09;;;;;;;5.00;3.65;;;;;;;19.24;73.85;97407.22;5050901;28;20561;-73
2023/06/15 07:58:36;;;;;;;5.18;3.55;;;;;;;19.30;73.92;97408.66;5050002;28;20821;-73
2023/06/15 08:01:03;;;;;;;7.32;3.83;;;;;;;19.38;73.01;97407.94;5038437;28;20427;-73
2023/06/15 08:03:29;;;;;;;6.85;3.35;;;;;;;19.43;72.98;97413.16;5050616;28;20424;-72
2023/06/15 08:05:56;;;;;;;4.72;3.33;;;;;;;19.51;73.34;97408.97;5033373;28;20863;-73
2023/06/15 08:08:22;;;;;;;4.30;3.00;;;;;;;19.58;73.42;97410.13;5032773;28;20515;-73
2023/06/15 08:10:48;;;;;;;4.77;3.47;;;;;;;19.66;73.47;97404.00;5045327;28;20405;-73
2023/06/15 08:13:14;;;;;;;8.80;4.18;;;;;;;19.74;71.96;97404.34;5050721;28;20443;-73
2023/06/15 08:15:41;;;;;;;5.75;3.67;;;;;;;19.85;72.33;97406.44;5040343;28;20415;-74
2023/06/15 08:18:08;;;;;;;6.85;3.80;;;;;;;19.96;72.15;97404.28;5046615;28;20912;-73
2023/06/15 08:20:36;;;;;;;8.40;4.05;;;;;;;20.03;72.01;97397.34;5047769;28;20410;-74
2023/06/15 08:23:02;;;;;;;6.05;3.58;;;;;;;20.16;71.77;97398.31;5031707;28;20415;-74
2023/06/15 08:25:28;;;;;;;4.15;3.17;;;;;;;20.29;72.08;97400.13;5030816;28;20746;-74
2023/06/15 08:27:54;;;;;;;4.05;3.30;;;;;;;20.39;71.46;97404.41;5047392;28;20414;-74
2023/06/15 08:30:20;;;;;;;5.25;3.10;;;;;;;20.52;71.37;97410.78;5051013;28;20874;-74
2023/06/15 08:32:47;;;;;;;4.25;3.25;;;;;;;20.60;70.92;97402.69;5047948;28;20409;-73
2023/06/15 08:35:14;;;;;;;5.40;3.58;;;;;;;20.68;70.63;97404.59;5050891;28;20444;-73
2023/06/15 08:37:41;;;;;;;9.07;4.10;;;;;;;20.75;67.79;97409.53;5051220;28;20398;-73
2023/06/15 08:40:08;;;;;;;7.88;4.30;;;;;;;20.80;67.45;97404.78;5051133;28;20485;-73
2023/06/15 08:42:34;;;;;;;6.82;3.58;;;;;;;20.89;68.07;97402.09;5051724;28;20409;-73
2023/06/15 08:45:05;;;;;;;5.88;3.70;;;;;;;21.00;68.15;97403.34;5050876;28;20918;-73
2023/06/15 08:47:33;;;;;;;4.97;3.63;;;;;;;21.09;67.85;97411.44;5051231;28;20463;-74
2023/06/15 08:50:01;;;;;;;4.47;3.17;;;;;;;21.19;67.38;97401.16;5039505;28;20453;-74
2023/06/15 08:52:32;;;;;;;4.93;3.40;;;;;;;21.28;67.44;97403.03;5038046;28;20395;-73
2023/06/15 08:54:59;;;;;;;4.45;3.38;;;;;;;21.35;67.06;97400.66;5041686;28;20414;-74
2023/06/15 08:57:27;;;;;;;8.75;4.13;;;;;;;21.39;66.34;97402.38;5040124;28;20476;-73
2023/06/15 08:59:53;;;;;;;5.38;3.65;;;;;;;21.47;65.86;97408.88;5041622;28;20413;-73
2023/06/15 09:02:21;;;;;;;6.88;3.80;;;;;;;21.56;64.41;97398.88;5051061;28;20398;-71
2023/06/15 09:04:50;;;;;;;4.93;3.97;;;;;;;21.64;64.23;97403.44;5053187;28;20409;-72
2023/06/15 09:07:17;;;;;;;7.07;4.05;;;;;;;21.69;63.59;97403.25;5049012;28;20403;-73
2023/06/15 09:10:12;;;;;;;4.60;3.40;;;;;;;21.79;63.48;97407.50;5047204;28;20414;-73
2023/06/15 09:12:43;;;;;;;7.68;3.83;;;;;;;21.93;64.28;97400.78;5035109;28;20695;-74
2023/06/15 09:15:12;;;;;;;3.60;3.17;;;;;;;22.00;63.59;97395.72;5048956;28;20813;-73
2023/06/15 09:17:39;;;;;;;5.57;3.60;;;;;;;22.06;62.99;97393.63;5034899;28;20815;-73
2023/06/15 09:20:07;;;;;;;6.72;3.63;;;;;;;22.19;63.47;97394.50;5041511;28;20445;-72
2023/06/15 09:22:41;;;;;;;4.30;3.10;;;;;;;22.28;63.09;97400.63;5047451;28;20415;-73
2023/06/15 09:25:14;;;;;;;5.40;3.47;;;;;;;22.29;61.18;97391.44;5045268;28;20484;-73
2023/06/15 09:27:40;;;;;;;5.70;3.58;;;;;;;22.36;61.46;97395.19;5048483;28;20437;-73
2023/06/15 09:30:08;;;;;;;5.87;3.73;;;;;;;22.43;61.38;97391.97;5048654;28;20413;-73
2023/06/15 09:32:34;;;;;;;4.68;2.85;;;;;;;22.55;61.33;97389.38;5053760;28;20437;-73
2023/06/15 09:35:01;;;;;;;4.60;3.20;;;;;;;22.61;60.91;97395.34;5054181;28;20404;-73
2023/06/15 09:37:27;;;;;;;6.15;3.80;;;;;;;22.66;58.70;97387.84;5054360;28;20886;-73
2023/06/15 09:39:54;;;;;;;9.25;3.60;;;;;;;22.65;54.78;97393.56;5042118;28;20418;-73
2023/06/15 09:42:26;;;;;;;4.70;3.35;;;;;;;22.75;57.25;97390.50;5034054;28;20413;-73
2023/06/15 09:44:54;;;;;;;5.18;3.53;;;;;;;22.83;54.51;97386.94;5033711;28;20879;-73
2023/06/15 09:47:20;;;;;;;5.88;3.63;;;;;;;22.87;55.59;97387.06;5034007;28;20931;-73
2023/06/15 09:49:49;;;;;;;3.90;2.77;;;;;;;22.93;55.87;97389.22;5035471;28;20414;-73
2023/06/15 09:52:15;;;;;;;6.72;3.53;;;;;;;23.19;53.21;97391.72;5034218;28;20417;-73
2023/06/15 09:54:42;;;;;;;5.10;3.42;;;;;;;23.31;50.13;97391.75;5046147;28;20891;-73
2023/06/15 09:57:08;;;;;;;5.72;3.53;;;;;;;23.28;51.02;97395.13;5041256;28;20763;-73
2023/06/15 09:59:36;;;;;;;6.22;3.30;;;;;;;23.32;51.53;97395.22;5033762;28;20410;-73
2023/06/15 10:02:09;;;;;;;5.85;3.40;;;;;;;23.33;51.78;97391.41;5050487;28;20410;-74
2023/06/15 10:04:40;;;;;;;5.47;3.55;;;;;;;23.60;49.44;97392.75;5033672;28;20761;-74
2023/06/15 10:07:10;;;;;;;4.90;3.30;;;;;;;23.64;49.49;97394.44;5033763;28;20465;-74
2023/06/15 10:09:40;;;;;;;3.70;3.00;;;;;;;23.61;50.95;97397.03;5033875;28;20762;-74
2023/06/15 10:12:11;;;;;;;5.60;3.60;;;;;;;23.42;51.63;97400.22;5040102;28;20410;-74
2023/06/15 10:14:47;;;;;;;3.97;3.08;;;;;;;23.23;52.25;97394.56;5045817;28;20496;-73
2023/06/15 10:17:18;;;;;;;4.13;3.20;;;;;;;23.01;49.25;97391.06;5053512;28;20401;-73
2023/06/15 10:19:49;;;;;;;4.00;2.80;;;;;;;22.81;50.67;97394.59;5046532;28;20493;-73
2023/06/15 10:22:18;;;;;;;5.80;2.83;;;;;;;22.78;48.81;97387.13;5044511;28;20407;-72
2023/06/15 10:24:45;;;;;;;7.75;3.05;;;;;;;22.97;48.63;97384.75;5053072;28;20398;-73
2023/06/15 10:27:12;;;;;;;4.72;2.78;;;;;;;23.19;49.45;97386.31;5053213;28;20433;-73
2023/06/15 10:29:47;;;;;;;4.47;3.10;;;;;;;23.33;48.48;97391.41;5052169;28;20412;-73
2023/06/15 10:32:20;;;;;;;5.47;3.42;;;;;;;23.44;48.25;97382.56;5033772;28;20403;-73
2023/06/15 10:34:52;;;;;;;4.07;2.67;;;;;;;23.72;49.50;97390.84;5033435;28;20461;-72
2023/06/15 10:37:26;;;;;;;5.03;2.97;;;;;;;24.00;48.84;97384.78;5033739;28;20402;-73
2023/06/15 10:39:55;;;;;;;5.55;3.08;;;;;;;24.14;48.82;97380.63;5033086;28;21473;-73
2023/06/15 10:42:21;;;;;;;6.15;2.47;;;;;;;24.37;48.32;97374.75;5033154;28;20399;-74
2023/06/15 10:44:49;;;;;;;3.95;3.22;;;;;;;24.42;45.31;97375.34;5047851;28;20473;-73
2023/06/15 10:47:21;;;;;;;5.80;2.90;;;;;;;24.46;45.26;97370.81;5052854;28;20417;-73
2023/06/15 10:49:51;;;;;;;4.70;2.95;;;;;;;24.58;45.70;97386.25;5045035;28;20445;-73
2023/06/15 10:52:18;;;;;;;3.40;2.55;;;;;;;24.74;46.81;97386.28;5032799;28;20410;-73
2023/06/15 10:54:44;;;;;;;4.03;3.20;;;;;;;24.73;45.11;97390.94;5037428;28;20407;-73
2023/06/15 10:57:16;;;;;;;5.13;3.17;;;;;;;24.78;44.97;97381.78;5040864;28;20399;-73
2023/06/15 10:59:49;;;;;;;5.80;3.05;;;;;;;25.20;41.76;97376.78;5035608;28;20765;-73
2023/06/15 11:02:47;;;;;;;6.50;3.63;;;;;;;25.24;41.99;97388.53;5049718;28;20834;-72
2023/06/15 11:05:16;;;;;;;7.70;3.53;;;;;;;25.23;42.92;97389.66;5047483;28;20767;-72
2023/06/15 11:07:43;;;;;;;3.97;3.25;;;;;;;25.18;44.16;97390.72;5039482;28;20828;-72
2023/06/15 11:10:14;;;;;;;5.28;3.53;;;;;;;25.00;43.90;97389.41;5052960;28;20404;-72
2023/06/15 11:12:42;;;;;;;5.72;3.33;;;;;;;24.80;45.43;97391.16;5038420;28;20418;-72
2023/06/15 11:15:13;;;;;;;3.97;2.83;;;;;;;24.61;46.37;97386.34;5032577;28;20411;-72
2023/06/15 11:17:57;;;;;;;5.07;3.17;;;;;;;24.44;47.05;97385.78;5051193;28;20797;-72
2023/06/15 11:20:44;;;;;;;4.97;3.38;;;;;;;24.39;47.97;97386.03;5052501;28;20393;-72
2023/06/15 11:23:12;;;;;;;3.72;2.75;;;;;;;24.35;48.34;97390.56;5037500;28;20414;-72
2023/06/15 11:25:42;;;;;;;3.13;2.50;;;;;;;24.42;48.49;97383.47;5033391;28;20412;-73
2023/06/15 11:28:09;;;;;;;3.70;3.00;;;;;;;24.57;48.04;97381.97;5032627;28;20409;-73
2023/06/15 11:30:38;;;;;;;40.90;8.30;;;;;;;24.77;47.87;97383.69;5033292;28;20565;-73
2023/06/15 11:33:10;;;;;;;9.77;3.80;;;;;;;25.02;46.38;97374.41;5032082;28;21512;-72
2023/06/15 11:35:37;;;;;;;45.15;7.75;;;;;;;25.17;46.87;97375.59;5033022;28;20403;-73